createdAt,value
2023-02-05T00:02:17.505Z,-0.78
2023-02-05T00:04:45.421Z,-0.78
2023-02-05T00:07:13.349Z,-0.83
2023-02-05T00:09:42.623Z,-0.89
2023-02-05T00:12:10.571Z,-0.92
2023-02-05T00:14:38.477Z,-0.92
2023-02-05T00:17:06.364Z,-0.94
2023-02-05T00:19:34.228Z,-1.08
2023-02-05T00:22:02.071Z,-1.07
2023-02-05T00:24:29.944Z,-1.02
2023-02-05T00:26:59.085Z,-1.02
2023-02-05T00:29:26.905Z,-1.03
2023-02-05T00:31:54.896Z,-1.02
2023-02-05T00:34:22.770Z,-1.07
2023-02-05T00:36:50.701Z,-1.05
2023-02-05T00:39:19.104Z,-1.05
2023-02-05T00:41:48.335Z,-1.07
2023-02-05T00:44:17.661Z,-1.05
2023-02-05T00:46:45.661Z,-1.11
2023-02-05T00:49:13.549Z,-1.14
2023-02-05T00:51:41.486Z,-1.08
2023-02-05T00:54:09.323Z,-1.11
2023-02-05T00:56:37.236Z,-1.12
2023-02-05T00:59:05.708Z,-1.12
2023-02-05T01:01:34.948Z,-1.10
2023-02-05T01:04:02.831Z,-1.11
2023-02-05T01:06:30.722Z,-1.12
2023-02-05T01:08:58.621Z,-1.13
2023-02-05T01:11:26.691Z,-1.11
2023-02-05T01:13:54.624Z,-1.18
2023-02-05T01:16:22.559Z,-1.13
2023-02-05T01:18:52.853Z,-1.09
2023-02-05T01:21:20.717Z,-1.05
2023-02-05T01:23:48.561Z,-1.02
2023-02-05T01:26:16.516Z,-1.00
2023-02-05T01:28:45.991Z,-0.99
2023-02-05T01:31:14.022Z,-0.97
2023-02-05T01:33:41.875Z,-1.02
2023-02-05T01:36:11.489Z,-1.09
2023-02-05T01:38:39.431Z,-1.06
2023-02-05T01:41:09.150Z,-1.11
2023-02-05T01:43:37.138Z,-1.09
2023-02-05T01:46:15.637Z,-1.12
2023-02-05T01:48:47.629Z,-1.13
2023-02-05T01:51:17.749Z,-1.14
2023-02-05T01:53:49.340Z,-1.12
2023-02-05T01:56:22.333Z,-1.16
2023-02-05T01:58:54.706Z,-1.17
2023-02-05T02:01:23.277Z,-1.19
2023-02-05T02:03:54.566Z,-1.23
2023-02-05T02:06:23.846Z,-1.26
2023-02-05T02:08:51.773Z,-1.27
2023-02-05T02:11:22.848Z,-1.28
2023-02-05T02:13:53.937Z,-1.29
2023-02-05T02:16:22.569Z,-1.28
2023-02-05T02:18:51.032Z,-1.31
2023-02-05T02:21:46.269Z,-1.40
2023-02-05T02:24:44.048Z,-1.48
2023-02-05T02:27:43.455Z,-1.51
2023-02-05T02:30:18.371Z,-1.56
2023-02-05T02:32:52.935Z,-1.58
2023-02-05T02:35:28.487Z,-1.62
2023-02-05T02:38:02.409Z,-1.56
2023-02-05T02:40:37.046Z,-1.57
2023-02-05T02:43:11.309Z,-1.56
2023-02-05T02:45:44.926Z,-1.60
2023-02-05T02:48:16.086Z,-1.62
2023-02-05T02:50:48.809Z,-1.72
2023-02-05T02:53:20.306Z,-1.67
2023-02-05T02:55:50.261Z,-1.68
2023-02-05T02:58:26.184Z,-1.68
2023-02-05T03:00:56.531Z,-1.68
2023-02-05T03:03:27.192Z,-1.71
2023-02-05T03:05:59.293Z,-1.70
2023-02-05T03:08:31.994Z,-1.68
2023-02-05T03:11:03.649Z,-1.68
2023-02-05T03:13:33.687Z,-1.63
2023-02-05T03:16:03.682Z,-1.54
2023-02-05T03:18:32.392Z,-1.47
2023-02-05T03:21:04.634Z,-1.42
2023-02-05T03:23:33.483Z,-1.43
2023-02-05T03:26:01.508Z,-1.45
2023-02-05T03:28:45.872Z,-1.36
2023-02-05T03:31:21.865Z,-1.31
2023-02-05T03:34:02.668Z,-1.24
2023-02-05T03:36:44.284Z,-1.25
2023-02-05T03:39:25.569Z,-1.26
2023-02-05T03:42:08.781Z,-1.29
2023-02-05T03:45:05.765Z,-1.37
2023-02-05T03:47:50.298Z,-1.41
2023-02-05T03:50:25.162Z,-1.45
2023-02-05T03:53:07.702Z,-1.47
2023-02-05T03:55:42.110Z,-1.46
2023-02-05T03:58:15.372Z,-1.44
2023-02-05T04:00:45.655Z,-1.44
2023-02-05T04:03:16.015Z,-1.50
2023-02-05T04:05:44.222Z,-1.44
2023-02-05T04:08:13.210Z,-1.47
2023-02-05T04:10:46.212Z,-1.57
2023-02-05T04:13:14.425Z,-1.46
2023-02-05T04:15:45.609Z,-1.45
2023-02-05T04:18:16.796Z,-1.40
2023-02-05T04:20:46.485Z,-1.41
2023-02-05T04:23:17.036Z,-1.39
2023-02-05T04:25:46.010Z,-1.37
2023-02-05T04:28:18.786Z,-1.33
2023-02-05T04:30:48.427Z,-1.29
2023-02-05T04:33:17.246Z,-1.31
2023-02-05T04:35:45.369Z,-1.33
2023-02-05T04:38:14.023Z,-1.38
2023-02-05T04:40:42.086Z,-1.47
2023-02-05T04:43:09.946Z,-1.53
2023-02-05T04:45:37.877Z,-1.61
2023-02-05T04:48:07.433Z,-1.66
2023-02-05T04:50:35.354Z,-1.71
2023-02-05T04:53:03.301Z,-1.75
2023-02-05T04:55:31.676Z,-1.84
2023-02-05T04:58:00.187Z,-1.82
2023-02-05T05:00:28.245Z,-1.86
2023-02-05T05:02:56.074Z,-1.90
2023-02-05T05:05:25.257Z,-1.92
2023-02-05T05:07:53.200Z,-1.90
2023-02-05T05:10:21.236Z,-1.93
2023-02-05T05:12:49.013Z,-1.94
2023-02-05T05:15:16.910Z,-1.96
2023-02-05T05:17:44.723Z,-1.99
2023-02-05T05:20:12.885Z,-1.99
2023-02-05T05:22:42.098Z,-2.03
2023-02-05T05:25:10.359Z,-2.02
2023-02-05T05:27:38.160Z,-2.03
2023-02-05T05:30:06.767Z,-2.02
2023-02-05T05:32:34.656Z,-1.99
2023-02-05T05:35:02.578Z,-1.96
2023-02-05T05:37:30.409Z,-1.96
2023-02-05T05:40:16.998Z,-1.98
2023-02-05T05:43:02.303Z,-1.98
2023-02-05T05:45:30.441Z,-1.97
2023-02-05T05:47:58.351Z,-1.96
2023-02-05T05:50:26.197Z,-1.97
2023-02-05T05:52:54.042Z,-1.94
2023-02-05T05:55:23.296Z,-1.99
2023-02-05T05:57:51.130Z,-2.03
2023-02-05T06:00:19.738Z,-2.12
2023-02-05T06:02:47.651Z,-2.10
2023-02-05T06:05:15.602Z,-2.12
2023-02-05T06:07:43.409Z,-2.11
2023-02-05T06:10:11.376Z,-2.11
2023-02-05T06:12:40.572Z,-2.06
2023-02-05T06:15:09.129Z,-2.10
2023-02-05T06:17:37.059Z,-2.11
2023-02-05T06:20:05.603Z,-2.08
2023-02-05T06:22:33.576Z,-2.04
2023-02-05T06:25:02.213Z,-1.99
2023-02-05T06:27:30.063Z,-1.99
2023-02-05T06:29:59.389Z,-2.04
2023-02-05T06:32:27.262Z,-2.07
2023-02-05T06:34:55.067Z,-2.12
2023-02-05T06:37:34.212Z,-2.15
2023-02-05T06:40:15.699Z,-2.14
2023-02-05T06:42:43.821Z,-2.12
2023-02-05T06:45:13.054Z,-2.06
2023-02-05T06:47:40.985Z,-2.06
2023-02-05T06:50:09.677Z,-2.03
2023-02-05T06:52:37.780Z,-1.99
2023-02-05T06:55:06.275Z,-2.01
2023-02-05T06:57:34.309Z,-1.99
2023-02-05T07:00:02.210Z,-1.98
2023-02-05T07:02:31.838Z,-1.97
2023-02-05T07:04:59.718Z,-1.94
2023-02-05T07:07:28.243Z,-1.98
2023-02-05T07:09:56.172Z,-1.92
2023-02-05T07:12:24.125Z,-1.93
2023-02-05T07:14:51.961Z,-1.91
2023-02-05T07:17:20.872Z,-1.88
2023-02-05T07:19:50.152Z,-1.84
2023-02-05T07:22:17.996Z,-1.79
2023-02-05T07:24:45.833Z,-1.76
2023-02-05T07:27:13.661Z,-1.71
2023-02-05T07:29:41.549Z,-1.70
2023-02-05T07:32:09.605Z,-1.65
2023-02-05T07:34:37.823Z,-1.69
2023-02-05T07:37:07.103Z,-1.60
2023-02-05T07:39:34.937Z,-1.56
2023-02-05T07:42:02.811Z,-1.54
2023-02-05T07:44:38.641Z,-1.52
2023-02-05T07:47:06.706Z,-1.49
2023-02-05T07:49:34.586Z,-1.46
2023-02-05T07:52:02.534Z,-1.43
2023-02-05T07:54:31.788Z,-1.43
2023-02-05T07:57:00.639Z,-1.40
2023-02-05T07:59:28.942Z,-1.36
2023-02-05T08:01:56.762Z,-1.31
2023-02-05T08:04:24.685Z,-1.29
2023-02-05T08:06:52.618Z,-1.27
2023-02-05T08:09:20.450Z,-1.26
2023-02-05T08:11:49.621Z,-1.26
2023-02-05T08:14:17.506Z,-1.24
2023-02-05T08:16:45.324Z,-1.19
2023-02-05T08:19:16.175Z,-1.20
2023-02-05T08:21:44.390Z,-1.18
2023-02-05T08:24:12.700Z,-1.13
2023-02-05T08:26:40.687Z,-1.12
2023-02-05T08:29:10.423Z,-1.11
2023-02-05T08:31:38.787Z,-1.07
2023-02-05T08:34:06.716Z,-1.09
2023-02-05T08:36:34.560Z,-1.09
2023-02-05T08:39:02.438Z,-1.07
2023-02-05T08:41:30.249Z,-1.04
2023-02-05T08:43:58.211Z,-1.00
2023-02-05T08:46:33.897Z,-0.99
2023-02-05T08:49:11.677Z,-0.96
2023-02-05T08:51:39.602Z,-0.98
2023-02-05T08:54:12.974Z,-0.96
2023-02-05T08:56:41.207Z,-0.97
2023-02-05T08:59:09.455Z,-0.97
2023-02-05T09:01:40.905Z,-1.01
2023-02-05T09:04:09.393Z,-0.93
2023-02-05T09:06:37.229Z,-0.91
2023-02-05T09:09:05.164Z,-1.03
2023-02-05T09:11:33.002Z,-0.88
2023-02-05T09:14:00.997Z,-0.83
2023-02-05T09:16:29.934Z,-0.81
2023-02-05T09:19:00.927Z,-0.80
2023-02-05T09:21:29.122Z,-0.78
2023-02-05T09:23:58.219Z,-0.78
2023-02-05T09:26:26.222Z,-0.76
2023-02-05T09:28:54.269Z,-0.76
2023-02-05T09:31:23.469Z,-0.74
2023-02-05T09:33:51.447Z,-0.70
2023-02-05T09:36:22.906Z,-0.70
2023-02-05T09:39:01.986Z,-0.71
2023-02-05T09:41:38.097Z,-0.69
2023-02-05T09:44:14.354Z,-0.65
2023-02-05T09:46:50.071Z,-0.68
2023-02-05T09:49:20.582Z,-0.71
2023-02-05T09:51:54.011Z,-0.73
2023-02-05T09:54:26.128Z,-0.72
2023-02-05T09:56:56.753Z,-0.81
2023-02-05T09:59:26.884Z,-0.74
2023-02-05T10:01:58.684Z,-0.67
2023-02-05T10:04:27.425Z,-0.66
2023-02-05T10:07:17.660Z,-0.60
2023-02-05T10:09:59.844Z,-0.59
2023-02-05T10:12:42.628Z,-0.68
2023-02-05T10:15:23.638Z,-0.65
2023-02-05T10:18:05.470Z,-0.67
2023-02-05T10:20:53.279Z,-0.78
2023-02-05T10:23:40.422Z,-0.66
2023-02-05T10:26:12.053Z,-0.62
2023-02-05T10:29:18.000Z,-0.61
2023-02-05T10:31:56.566Z,-0.61
2023-02-05T10:34:38.418Z,-0.62
2023-02-05T10:37:11.402Z,-0.61
2023-02-05T10:39:40.826Z,-0.57
2023-02-05T10:42:27.642Z,-0.56
2023-02-05T10:45:04.522Z,-0.53
2023-02-05T10:47:50.721Z,-0.55
2023-02-05T10:50:25.644Z,-0.55
2023-02-05T10:52:53.753Z,-0.52
2023-02-05T10:55:23.035Z,-0.51
2023-02-05T10:57:51.051Z,-0.44
2023-02-05T11:00:21.489Z,-0.39
2023-02-05T11:02:52.070Z,-0.55
2023-02-05T11:05:25.562Z,-0.40
2023-02-05T11:07:54.865Z,-0.41
2023-02-05T11:10:26.797Z,-0.35
2023-02-05T11:12:57.517Z,-0.25
2023-02-05T11:15:28.745Z,-0.27
2023-02-05T11:18:00.186Z,-0.28
2023-02-05T11:20:33.908Z,-0.29
2023-02-05T11:23:15.312Z,-0.30
2023-02-05T11:25:52.761Z,-0.30
2023-02-05T11:28:25.036Z,-0.28
2023-02-05T11:30:53.482Z,-0.25
2023-02-05T11:33:32.409Z,-0.24
2023-02-05T11:36:04.067Z,-0.22
2023-02-05T11:38:36.285Z,-0.37
2023-02-05T11:41:09.325Z,-0.28
2023-02-05T11:43:39.806Z,-0.28
2023-02-05T11:46:10.682Z,-0.25
2023-02-05T11:48:41.956Z,-0.20
2023-02-05T11:51:12.765Z,-0.21
2023-02-05T11:53:55.147Z,-0.18
2023-02-05T11:56:26.278Z,-0.20
2023-02-05T11:59:00.884Z,-0.17
2023-02-05T12:01:33.766Z,-0.27
2023-02-05T12:04:03.220Z,-0.08
2023-02-05T12:06:36.418Z,-0.10
2023-02-05T12:09:04.646Z,-0.16
2023-02-05T12:12:03.856Z,-0.22
2023-02-05T12:14:42.947Z,-0.12
2023-02-05T12:17:33.335Z,-0.03
2023-02-05T12:20:11.131Z,-0.08
2023-02-05T12:22:56.474Z,-0.12
2023-02-05T12:25:29.908Z,-0.16
2023-02-05T12:28:13.466Z,-0.35
2023-02-05T12:30:52.431Z,-0.12
2023-02-05T12:33:37.434Z,-0.10
2023-02-05T12:36:22.970Z,-0.02
2023-02-05T12:39:00.885Z,0.00
2023-02-05T12:41:37.628Z,0.00
2023-02-05T12:44:16.789Z,0.06
2023-02-05T12:46:56.214Z,0.08
2023-02-05T12:49:43.483Z,0.12
2023-02-05T12:52:31.855Z,0.14
2023-02-05T12:55:18.538Z,0.23
2023-02-05T12:57:51.810Z,0.27
2023-02-05T13:00:25.646Z,0.39
2023-02-05T13:03:01.784Z,0.48
2023-02-05T13:05:34.170Z,0.57
2023-02-05T13:08:06.844Z,0.61
2023-02-05T13:10:43.037Z,0.62
2023-02-05T13:13:15.598Z,0.74
2023-02-05T13:15:49.332Z,0.75
2023-02-05T13:18:22.620Z,0.78
2023-02-05T13:21:13.562Z,0.79
2023-02-05T13:24:02.018Z,0.86
2023-02-05T13:26:51.478Z,0.94
2023-02-05T13:29:22.821Z,1.03
2023-02-05T13:31:56.992Z,1.04
2023-02-05T13:34:26.028Z,1.15
2023-02-05T13:37:18.275Z,1.13
2023-02-05T13:40:11.733Z,1.12
2023-02-05T13:43:28.416Z,1.10
2023-02-05T13:46:19.166Z,1.11
2023-02-05T13:49:16.885Z,1.17
2023-02-05T13:52:11.577Z,1.11
2023-02-05T13:55:08.665Z,1.17
2023-02-05T13:58:09.362Z,1.16
2023-02-05T14:00:39.343Z,1.18
2023-02-05T14:03:09.605Z,1.09
2023-02-05T14:05:40.375Z,1.33
2023-02-05T14:08:23.102Z,1.35
2023-02-05T14:11:00.242Z,1.32
2023-02-05T14:13:32.676Z,1.32
2023-02-05T14:16:33.621Z,1.24
2023-02-05T14:19:17.510Z,1.32
2023-02-05T14:22:03.257Z,1.31
2023-02-05T14:24:50.034Z,1.28
2023-02-05T14:27:43.132Z,1.35
2023-02-05T14:30:49.583Z,1.31
2023-02-05T14:33:38.433Z,1.27
2023-02-05T14:36:36.218Z,1.30
2023-02-05T14:39:07.306Z,1.40
2023-02-05T14:41:50.733Z,1.48
2023-02-05T14:44:22.439Z,1.44
2023-02-05T14:47:05.608Z,1.43
2023-02-05T14:49:42.563Z,1.28
2023-02-05T14:52:26.820Z,1.26
2023-02-05T14:55:00.125Z,1.31
2023-02-05T14:57:39.600Z,1.23
2023-02-05T15:00:22.796Z,1.23
2023-02-05T15:03:21.699Z,1.28
2023-02-05T15:05:54.260Z,1.30
2023-02-05T15:08:28.407Z,1.26
2023-02-05T15:11:05.840Z,1.14
2023-02-05T15:13:35.512Z,1.14
2023-02-05T15:16:22.192Z,1.14
2023-02-05T15:18:52.812Z,1.05
2023-02-05T15:21:28.097Z,1.01
2023-02-05T15:24:02.203Z,0.96
2023-02-05T15:26:42.836Z,0.78
2023-02-05T15:29:17.559Z,0.58
2023-02-05T15:31:49.382Z,0.53
2023-02-05T15:34:29.574Z,0.43
2023-02-05T15:37:04.097Z,0.21
2023-02-05T15:39:41.038Z,0.06
2023-02-05T15:42:16.696Z,-0.07
2023-02-05T15:44:46.287Z,-0.22
2023-02-05T15:47:20.277Z,-0.37
2023-02-05T15:49:51.643Z,-0.50
2023-02-05T15:52:23.009Z,-0.58
2023-02-05T15:54:52.901Z,-0.80
2023-02-05T15:57:23.880Z,-0.76
2023-02-05T15:59:55.178Z,-0.86
2023-02-05T16:02:25.940Z,-0.94
2023-02-05T16:04:57.407Z,-1.01
2023-02-05T16:07:26.812Z,-1.06
2023-02-05T16:09:57.116Z,-1.21
2023-02-05T16:12:25.794Z,-1.15
2023-02-05T16:15:02.910Z,-1.17
2023-02-05T16:17:38.979Z,-1.24
2023-02-05T16:20:29.192Z,-1.25
2023-02-05T16:23:00.687Z,-1.24
2023-02-05T16:25:38.055Z,-1.23
2023-02-05T16:28:13.230Z,-1.22
2023-02-05T16:30:44.062Z,-1.26
2023-02-05T16:33:26.447Z,-1.35
2023-02-05T16:35:55.181Z,-1.40
2023-02-05T16:38:24.193Z,-1.39
2023-02-05T16:40:55.519Z,-1.44
2023-02-05T16:43:33.009Z,-1.52
2023-02-05T16:46:29.622Z,-1.52
2023-02-05T16:48:59.946Z,-1.51
2023-02-05T16:51:52.432Z,-1.53
2023-02-05T16:54:29.229Z,-1.61
2023-02-05T16:57:01.944Z,-1.63
2023-02-05T16:59:32.833Z,-1.78
2023-02-05T17:02:03.274Z,-1.70
2023-02-05T17:04:34.627Z,-1.78
2023-02-05T17:07:05.492Z,-1.80
2023-02-05T17:09:36.695Z,-1.85
2023-02-05T17:12:36.425Z,-1.89
2023-02-05T17:15:21.003Z,-1.91
2023-02-05T17:17:53.637Z,-1.96
2023-02-05T17:20:24.686Z,-1.97
2023-02-05T17:23:13.154Z,-1.99
2023-02-05T17:25:44.300Z,-1.98
2023-02-05T17:28:16.806Z,-2.02
2023-02-05T17:30:46.814Z,-2.07
2023-02-05T17:33:20.743Z,-2.09
2023-02-05T17:35:48.964Z,-2.10
2023-02-05T17:38:17.842Z,-2.15
2023-02-05T17:40:45.726Z,-2.19
2023-02-05T17:43:13.742Z,-2.22
2023-02-05T17:45:44.124Z,-2.25
2023-02-05T17:48:12.657Z,-2.27
2023-02-05T17:50:42.006Z,-2.29
2023-02-05T17:53:13.992Z,-2.34
2023-02-05T17:55:41.888Z,-2.36
2023-02-05T17:58:09.785Z,-2.35
2023-02-05T18:00:37.663Z,-2.39
2023-02-05T18:03:05.583Z,-2.45
2023-02-05T18:05:34.133Z,-2.47
2023-02-05T18:08:03.593Z,-2.49
2023-02-05T18:10:32.687Z,-2.49
2023-02-05T18:13:00.746Z,-2.54
2023-02-05T18:15:29.538Z,-2.52
2023-02-05T18:17:57.704Z,-2.53
2023-02-05T18:20:25.630Z,-2.52
2023-02-05T18:22:53.613Z,-2.53
2023-02-05T18:25:22.808Z,-2.58
2023-02-05T18:27:50.700Z,-2.67
2023-02-05T18:30:18.953Z,-2.67
2023-02-05T18:32:46.920Z,-2.71
2023-02-05T18:35:15.434Z,-2.75
2023-02-05T18:37:43.886Z,-2.79
2023-02-05T18:40:13.619Z,-2.83
2023-02-05T18:42:46.928Z,-2.86
2023-02-05T18:45:14.869Z,-2.87
2023-02-05T18:47:42.754Z,-2.87
2023-02-05T18:50:10.929Z,-2.87
2023-02-05T18:52:38.871Z,-2.86
2023-02-05T18:55:07.790Z,-2.86
2023-02-05T18:57:35.680Z,-2.95
2023-02-05T19:00:05.812Z,-2.90
2023-02-05T19:02:35.171Z,-2.90
2023-02-05T19:05:03.320Z,-2.91
2023-02-05T19:07:31.228Z,-2.93
2023-02-05T19:09:59.389Z,-2.98
2023-02-05T19:12:27.316Z,-2.98
2023-02-05T19:14:55.220Z,-2.99
2023-02-05T19:17:27.296Z,-3.03
2023-02-05T19:19:55.688Z,-3.07
2023-02-05T19:22:23.543Z,-3.09
2023-02-05T19:24:51.515Z,-3.11
2023-02-05T19:27:19.734Z,-3.14
2023-02-05T19:29:47.876Z,-3.17
2023-02-05T19:32:15.798Z,-3.22
2023-02-05T19:34:46.493Z,-3.25
2023-02-05T19:37:14.420Z,-3.27
2023-02-05T19:39:42.245Z,-3.29
2023-02-05T19:42:10.140Z,-3.30
2023-02-05T19:44:38.080Z,-3.36
2023-02-05T19:47:09.895Z,-3.42
2023-02-05T19:49:37.775Z,-3.39
2023-02-05T19:52:08.447Z,-3.41
2023-02-05T19:54:36.450Z,-3.44
2023-02-05T19:57:04.630Z,-3.45
2023-02-05T19:59:32.502Z,-3.46
2023-02-05T20:02:00.466Z,-3.50
2023-02-05T20:04:30.038Z,-3.52
2023-02-05T20:06:59.836Z,-3.53
2023-02-05T20:09:31.808Z,-3.53
2023-02-05T20:11:59.718Z,-3.58
2023-02-05T20:14:27.569Z,-3.57
2023-02-05T20:16:55.449Z,-3.56
2023-02-05T20:19:23.334Z,-3.56
2023-02-05T20:21:52.265Z,-3.56
2023-02-05T20:24:20.107Z,-3.53
2023-02-05T20:26:49.363Z,-3.55
2023-02-05T20:29:35.166Z,-3.53
2023-02-05T20:32:03.048Z,-3.56
2023-02-05T20:34:34.032Z,-3.49
2023-02-05T20:37:06.270Z,-3.47
2023-02-05T20:39:38.507Z,-3.50
2023-02-05T20:42:07.944Z,-3.40
2023-02-05T20:44:36.989Z,-3.32
2023-02-05T20:47:07.279Z,-3.20
2023-02-05T20:49:35.741Z,-3.23
2023-02-05T20:52:03.746Z,-3.11
2023-02-05T20:54:31.679Z,-3.06
2023-02-05T20:57:00.061Z,-3.07
2023-02-05T20:59:31.398Z,-3.07
2023-02-05T21:01:59.413Z,-3.13
2023-02-05T21:04:28.267Z,-3.20
2023-02-05T21:06:56.173Z,-3.21
2023-02-05T21:09:24.210Z,-3.30
2023-02-05T21:11:55.267Z,-3.23
2023-02-05T21:14:23.670Z,-3.23
2023-02-05T21:16:52.867Z,-3.24
2023-02-05T21:19:20.909Z,-3.34
2023-02-05T21:21:49.759Z,-3.35
2023-02-05T21:24:18.085Z,-3.40
2023-02-05T21:26:47.609Z,-3.45
2023-02-05T21:29:17.640Z,-3.49
2023-02-05T21:31:48.093Z,-3.48
2023-02-05T21:34:21.638Z,-3.60
2023-02-05T21:36:50.241Z,-3.54
2023-02-05T21:39:20.144Z,-3.80
2023-02-05T21:41:50.415Z,-3.81
2023-02-05T21:44:18.468Z,-3.70
2023-02-05T21:46:46.431Z,-3.64
2023-02-05T21:49:14.497Z,-3.60
2023-02-05T21:51:43.764Z,-3.65
2023-02-05T21:54:12.581Z,-3.68
2023-02-05T21:56:43.228Z,-3.64
2023-02-05T21:59:11.657Z,-3.63
2023-02-05T22:01:40.177Z,-3.71
2023-02-05T22:04:10.453Z,-3.56
2023-02-05T22:06:38.659Z,-3.56
2023-02-05T22:09:09.893Z,-3.50
2023-02-05T22:11:39.297Z,-3.49
2023-02-05T22:14:08.706Z,-3.48
2023-02-05T22:16:37.637Z,-3.47
2023-02-05T22:19:06.335Z,-3.47
2023-02-05T22:21:36.712Z,-3.48
2023-02-05T22:24:05.950Z,-3.55
2023-02-05T22:26:37.391Z,-3.54
2023-02-05T22:29:07.381Z,-3.59
2023-02-05T22:31:36.210Z,-3.60
2023-02-05T22:34:04.289Z,-3.57
2023-02-05T22:36:33.778Z,-3.58
2023-02-05T22:39:02.685Z,-3.56
2023-02-05T22:41:33.526Z,-3.59
2023-02-05T22:44:03.993Z,-3.58
2023-02-05T22:46:33.956Z,-3.59
2023-02-05T22:49:03.531Z,-3.59
2023-02-05T22:51:33.774Z,-3.61
2023-02-05T22:54:02.020Z,-3.60
2023-02-05T22:56:30.060Z,-3.61
2023-02-05T22:58:59.729Z,-3.73
2023-02-05T23:01:33.060Z,-3.70
2023-02-05T23:04:08.510Z,-3.69
2023-02-05T23:06:38.405Z,-3.69
2023-02-05T23:09:08.772Z,-3.71
2023-02-05T23:11:37.283Z,-3.76
2023-02-05T23:14:06.602Z,-3.76
2023-02-05T23:16:37.964Z,-3.78
2023-02-05T23:19:09.808Z,-3.78
2023-02-05T23:21:38.757Z,-3.78
2023-02-05T23:24:07.109Z,-3.78
2023-02-05T23:26:38.478Z,-3.81
2023-02-05T23:29:06.474Z,-3.79
2023-02-05T23:31:35.843Z,-3.76
2023-02-05T23:34:04.059Z,-3.80
2023-02-05T23:36:32.020Z,-3.84
2023-02-05T23:38:59.983Z,-3.91
2023-02-05T23:41:39.739Z,-4.03
2023-02-05T23:44:12.621Z,-4.23
2023-02-05T23:46:43.129Z,-4.30
2023-02-05T23:49:12.024Z,-4.29
2023-02-05T23:51:40.153Z,-4.29
2023-02-05T23:54:09.598Z,-4.30
2023-02-05T23:56:37.515Z,-4.32
2023-02-05T23:59:06.640Z,-4.31
